sensor_id;sensor_type;location;lat;lon;timestamp;P1;durP1;ratioP1;P2;durP2;ratioP2
9520;SDS011;4798;41.574;23.734;2023-02-15T00:00:10;0.30;;;0.20;;
9520;SDS011;4798;41.574;23.734;2023-02-15T00:02:39;0.30;;;0.30;;
9520;SDS011;4798;41.574;23.734;2023-02-15T00:05:09;0.50;;;0.50;;
9520;SDS011;4798;41.574;23.734;2023-02-15T00:07:37;0.87;;;0.83;;
9520;SDS011;4798;41.574;23.734;2023-02-15T00:10:07;0.63;;;0.63;;
9520;SDS011;4798;41.574;23.734;2023-02-15T00:12:37;0.30;;;0.30;;
9520;SDS011;4798;41.574;23.734;2023-02-15T00:15:06;0.40;;;0.30;;
9520;SDS011;4798;41.574;23.734;2023-02-15T00:17:34;19.03;;;0.80;;
9520;SDS011;4798;41.574;23.734;2023-02-15T00:20:03;5.00;;;0.60;;
9520;SDS011;4798;41.574;23.734;2023-02-15T00:22:33;3.90;;;0.50;;
9520;SDS011;4798;41.574;23.734;2023-02-15T00:25:02;0.30;;;0.20;;
9520;SDS011;4798;41.574;23.734;2023-02-15T00:27:30;0.70;;;0.30;;
9520;SDS011;4798;41.574;23.734;2023-02-15T00:29:58;0.30;;;0.20;;
9520;SDS011;4798;41.574;23.734;2023-02-15T00:32:27;2.67;;;0.50;;
9520;SDS011;4798;41.574;23.734;2023-02-15T00:34:55;0.30;;;0.20;;
9520;SDS011;4798;41.574;23.734;2023-02-15T00:37:23;0.60;;;0.60;;
9520;SDS011;4798;41.574;23.734;2023-02-15T00:39:53;0.30;;;0.20;;
9520;SDS011;4798;41.574;23.734;2023-02-15T00:42:21;0.57;;;0.30;;
9520;SDS011;4798;41.574;23.734;2023-02-15T00:44:50;0.27;;;0.20;;
9520;SDS011;4798;41.574;23.734;2023-02-15T00:47:18;0.30;;;0.20;;
9520;SDS011;4798;41.574;23.734;2023-02-15T00:49:46;0.30;;;0.20;;
9520;SDS011;4798;41.574;23.734;2023-02-15T00:52:14;0.40;;;0.40;;
9520;SDS011;4798;41.574;23.734;2023-02-15T00:54:43;0.30;;;0.20;;
9520;SDS011;4798;41.574;23.734;2023-02-15T00:57:12;1.13;;;0.50;;
9520;SDS011;4798;41.574;23.734;2023-02-15T00:59:41;1.73;;;0.40;;
9520;SDS011;4798;41.574;23.734;2023-02-15T01:02:09;5.40;;;0.77;;
9520;SDS011;4798;41.574;23.734;2023-02-15T01:04:37;0.50;;;0.50;;
9520;SDS011;4798;41.574;23.734;2023-02-15T01:07:06;1.50;;;0.60;;
9520;SDS011;4798;41.574;23.734;2023-02-15T01:09:34;1.10;;;1.00;;
9520;SDS011;4798;41.574;23.734;2023-02-15T01:12:02;0.40;;;0.30;;
9520;SDS011;4798;41.574;23.734;2023-02-15T01:14:32;0.87;;;0.87;;
9520;SDS011;4798;41.574;23.734;2023-02-15T01:17:00;0.40;;;0.30;;
9520;SDS011;4798;41.574;23.734;2023-02-15T01:19:29;0.60;;;0.60;;
9520;SDS011;4798;41.574;23.734;2023-02-15T01:21:57;0.53;;;0.40;;
9520;SDS011;4798;41.574;23.734;2023-02-15T01:24:25;1.77;;;1.77;;
9520;SDS011;4798;41.574;23.734;2023-02-15T01:26:54;1.57;;;1.57;;
9520;SDS011;4798;41.574;23.734;2023-02-15T01:29:22;0.63;;;0.63;;
9520;SDS011;4798;41.574;23.734;2023-02-15T01:31:52;0.30;;;0.30;;
9520;SDS011;4798;41.574;23.734;2023-02-15T01:34:20;0.40;;;0.33;;
9520;SDS011;4798;41.574;23.734;2023-02-15T01:36:48;1.13;;;1.13;;
9520;SDS011;4798;41.574;23.734;2023-02-15T01:39:16;0.80;;;0.67;;
9520;SDS011;4798;41.574;23.734;2023-02-15T01:41:45;0.60;;;0.60;;
9520;SDS011;4798;41.574;23.734;2023-02-15T01:47:20;1.67;;;1.57;;
9520;SDS011;4798;41.574;23.734;2023-02-15T01:49:58;2.20;;;1.90;;
9520;SDS011;4798;41.574;23.734;2023-02-15T01:52:31;1.13;;;0.70;;
9520;SDS011;4798;41.574;23.734;2023-02-15T01:55:04;0.60;;;0.60;;
9520;SDS011;4798;41.574;23.734;2023-02-15T01:57:34;1.63;;;1.17;;
9520;SDS011;4798;41.574;23.734;2023-02-15T02:00:04;2.77;;;2.57;;
9520;SDS011;4798;41.574;23.734;2023-02-15T02:02:37;3.23;;;2.23;;
9520;SDS011;4798;41.574;23.734;2023-02-15T02:05:06;5.37;;;0.73;;
9520;SDS011;4798;41.574;23.734;2023-02-15T02:07:36;1.07;;;0.97;;
9520;SDS011;4798;41.574;23.734;2023-02-15T02:10:08;0.40;;;0.30;;
9520;SDS011;4798;41.574;23.734;2023-02-15T02:12:39;0.40;;;0.30;;
9520;SDS011;4798;41.574;23.734;2023-02-15T02:15:10;0.50;;;0.30;;
9520;SDS011;4798;41.574;23.734;2023-02-15T02:17:43;0.37;;;0.37;;
9520;SDS011;4798;41.574;23.734;2023-02-15T02:20:30;0.37;;;0.20;;
9520;SDS011;4798;41.574;23.734;2023-02-15T02:23:19;0.97;;;0.97;;
9520;SDS011;4798;41.574;23.734;2023-02-15T02:25:59;0.57;;;0.57;;
9520;SDS011;4798;41.574;23.734;2023-02-15T02:32:03;2.50;;;0.60;;
9520;SDS011;4798;41.574;23.734;2023-02-15T02:35:07;0.30;;;0.20;;
9520;SDS011;4798;41.574;23.734;2023-02-15T02:37:42;0.30;;;0.20;;
9520;SDS011;4798;41.574;23.734;2023-02-15T02:40:19;0.30;;;0.20;;
9520;SDS011;4798;41.574;23.734;2023-02-15T02:42:55;2.10;;;1.07;;
9520;SDS011;4798;41.574;23.734;2023-02-15T02:45:31;1.33;;;0.93;;
9520;SDS011;4798;41.574;23.734;2023-02-15T02:48:05;0.37;;;0.33;;
9520;SDS011;4798;41.574;23.734;2023-02-15T02:50:38;0.30;;;0.20;;
9520;SDS011;4798;41.574;23.734;2023-02-15T02:53:08;0.93;;;0.83;;
9520;SDS011;4798;41.574;23.734;2023-02-15T02:55:38;0.30;;;0.20;;
9520;SDS011;4798;41.574;23.734;2023-02-15T02:58:11;0.50;;;0.30;;
9520;SDS011;4798;41.574;23.734;2023-02-15T03:00:44;0.77;;;0.77;;
9520;SDS011;4798;41.574;23.734;2023-02-15T03:03:20;0.57;;;0.57;;
9520;SDS011;4798;41.574;23.734;2023-02-15T03:05:56;0.30;;;0.30;;
9520;SDS011;4798;41.574;23.734;2023-02-15T03:08:29;0.30;;;0.23;;
9520;SDS011;4798;41.574;23.734;2023-02-15T03:11:02;1.07;;;0.50;;
9520;SDS011;4798;41.574;23.734;2023-02-15T03:13:31;0.50;;;0.50;;
9520;SDS011;4798;41.574;23.734;2023-02-15T03:16:01;0.30;;;0.30;;
9520;SDS011;4798;41.574;23.734;2023-02-15T03:18:49;0.73;;;0.73;;
9520;SDS011;4798;41.574;23.734;2023-02-15T03:21:30;0.60;;;0.60;;
9520;SDS011;4798;41.574;23.734;2023-02-15T03:24:03;0.50;;;0.30;;
9520;SDS011;4798;41.574;23.734;2023-02-15T03:26:36;0.70;;;0.70;;
9520;SDS011;4798;41.574;23.734;2023-02-15T03:29:05;0.30;;;0.20;;
9520;SDS011;4798;41.574;23.734;2023-02-15T03:31:36;0.97;;;0.97;;
9520;SDS011;4798;41.574;23.734;2023-02-15T03:34:09;0.37;;;0.30;;
9520;SDS011;4798;41.574;23.734;2023-02-15T03:36:43;0.67;;;0.67;;
9520;SDS011;4798;41.574;23.734;2023-02-15T03:39:17;0.57;;;0.57;;
9520;SDS011;4798;41.574;23.734;2023-02-15T03:41:51;1.17;;;1.10;;
9520;SDS011;4798;41.574;23.734;2023-02-15T03:44:25;0.30;;;0.20;;
9520;SDS011;4798;41.574;23.734;2023-02-15T03:46:58;0.50;;;0.40;;
9520;SDS011;4798;41.574;23.734;2023-02-15T03:49:34;0.77;;;0.77;;
9520;SDS011;4798;41.574;23.734;2023-02-15T03:52:11;0.40;;;0.40;;
9520;SDS011;4798;41.574;23.734;2023-02-15T03:54:42;0.30;;;0.20;;
9520;SDS011;4798;41.574;23.734;2023-02-15T03:57:13;13.40;;;0.40;;
9520;SDS011;4798;41.574;23.734;2023-02-15T04:00:02;0.30;;;0.20;;
9520;SDS011;4798;41.574;23.734;2023-02-15T04:02:55;0.30;;;0.20;;
9520;SDS011;4798;41.574;23.734;2023-02-15T04:05:34;0.40;;;0.20;;
9520;SDS011;4798;41.574;23.734;2023-02-15T04:08:04;0.30;;;0.20;;
9520;SDS011;4798;41.574;23.734;2023-02-15T04:10:33;0.40;;;0.40;;
9520;SDS011;4798;41.574;23.734;2023-02-15T04:13:18;0.60;;;0.60;;
9520;SDS011;4798;41.574;23.734;2023-02-15T04:15:47;8.80;;;0.40;;
9520;SDS011;4798;41.574;23.734;2023-02-15T04:18:31;0.30;;;0.30;;
9520;SDS011;4798;41.574;23.734;2023-02-15T04:21:19;0.30;;;0.23;;
9520;SDS011;4798;41.574;23.734;2023-02-15T04:24:08;0.63;;;0.63;;
9520;SDS011;4798;41.574;23.734;2023-02-15T04:26:54;31.93;;;0.77;;
9520;SDS011;4798;41.574;23.734;2023-02-15T04:29:23;1.13;;;0.20;;
9520;SDS011;4798;41.574;23.734;2023-02-15T04:31:53;0.43;;;0.43;;
9520;SDS011;4798;41.574;23.734;2023-02-15T04:34:23;0.43;;;0.43;;
9520;SDS011;4798;41.574;23.734;2023-02-15T04:36:51;0.30;;;0.20;;
9520;SDS011;4798;41.574;23.734;2023-02-15T04:39:21;1.07;;;0.53;;
9520;SDS011;4798;41.574;23.734;2023-02-15T04:41:49;3.40;;;1.23;;
9520;SDS011;4798;41.574;23.734;2023-02-15T04:44:18;0.83;;;0.83;;
9520;SDS011;4798;41.574;23.734;2023-02-15T04:46:46;0.97;;;0.97;;
9520;SDS011;4798;41.574;23.734;2023-02-15T04:49:14;0.63;;;0.63;;
9520;SDS011;4798;41.574;23.734;2023-02-15T04:51:43;0.30;;;0.30;;
9520;SDS011;4798;41.574;23.734;2023-02-15T04:54:11;0.37;;;0.27;;
9520;SDS011;4798;41.574;23.734;2023-02-15T04:56:41;0.30;;;0.20;;
9520;SDS011;4798;41.574;23.734;2023-02-15T04:59:10;0.40;;;0.30;;
9520;SDS011;4798;41.574;23.734;2023-02-15T05:01:38;1.37;;;1.37;;
9520;SDS011;4798;41.574;23.734;2023-02-15T05:04:06;1.03;;;0.70;;
9520;SDS011;4798;41.574;23.734;2023-02-15T05:06:35;0.50;;;0.50;;
9520;SDS011;4798;41.574;23.734;2023-02-15T05:09:04;1.13;;;0.97;;
9520;SDS011;4798;41.574;23.734;2023-02-15T05:11:32;0.50;;;0.47;;
9520;SDS011;4798;41.574;23.734;2023-02-15T05:14:02;3.03;;;2.83;;
9520;SDS011;4798;41.574;23.734;2023-02-15T05:16:30;12.10;;;3.80;;
9520;SDS011;4798;41.574;23.734;2023-02-15T05:18:59;2.20;;;2.10;;
9520;SDS011;4798;41.574;23.734;2023-02-15T05:21:28;2.20;;;2.13;;
9520;SDS011;4798;41.574;23.734;2023-02-15T05:23:56;2.43;;;1.60;;
9520;SDS011;4798;41.574;23.734;2023-02-15T05:26:24;3.40;;;3.20;;
9520;SDS011;4798;41.574;23.734;2023-02-15T05:29:11;2.73;;;2.63;;
9520;SDS011;4798;41.574;23.734;2023-02-15T05:31:40;0.63;;;0.63;;
9520;SDS011;4798;41.574;23.734;2023-02-15T05:34:11;0.40;;;0.30;;
9520;SDS011;4798;41.574;23.734;2023-02-15T05:36:39;1.53;;;1.43;;
9520;SDS011;4798;41.574;23.734;2023-02-15T05:39:07;2.10;;;2.00;;
9520;SDS011;4798;41.574;23.734;2023-02-15T05:41:35;0.97;;;0.97;;
9520;SDS011;4798;41.574;23.734;2023-02-15T05:44:04;0.40;;;0.40;;
9520;SDS011;4798;41.574;23.734;2023-02-15T05:46:37;2.73;;;2.00;;
9520;SDS011;4798;41.574;23.734;2023-02-15T05:49:05;2.20;;;1.77;;
9520;SDS011;4798;41.574;23.734;2023-02-15T05:51:33;3.70;;;1.97;;
9520;SDS011;4798;41.574;23.734;2023-02-15T05:54:02;2.40;;;1.90;;
9520;SDS011;4798;41.574;23.734;2023-02-15T05:56:30;1.43;;;1.33;;
9520;SDS011;4798;41.574;23.734;2023-02-15T05:58:59;5.23;;;4.57;;
9520;SDS011;4798;41.574;23.734;2023-02-15T06:01:29;2.20;;;2.10;;
9520;SDS011;4798;41.574;23.734;2023-02-15T06:03:59;1.97;;;1.97;;
9520;SDS011;4798;41.574;23.734;2023-02-15T06:06:27;3.70;;;2.13;;
9520;SDS011;4798;41.574;23.734;2023-02-15T06:08:56;0.80;;;0.80;;
9520;SDS011;4798;41.574;23.734;2023-02-15T06:11:24;2.13;;;1.90;;
9520;SDS011;4798;41.574;23.734;2023-02-15T06:13:52;0.70;;;0.70;;
9520;SDS011;4798;41.574;23.734;2023-02-15T06:16:21;3.63;;;2.80;;
9520;SDS011;4798;41.574;23.734;2023-02-15T06:18:49;0.97;;;0.97;;
9520;SDS011;4798;41.574;23.734;2023-02-15T06:21:20;3.90;;;2.90;;
9520;SDS011;4798;41.574;23.734;2023-02-15T06:23:48;1.57;;;1.47;;
9520;SDS011;4798;41.574;23.734;2023-02-15T06:26:17;3.30;;;3.10;;
9520;SDS011;4798;41.574;23.734;2023-02-15T06:28:45;1.50;;;1.40;;
9520;SDS011;4798;41.574;23.734;2023-02-15T06:31:13;4.50;;;4.10;;
9520;SDS011;4798;41.574;23.734;2023-02-15T06:33:42;2.40;;;2.30;;
9520;SDS011;4798;41.574;23.734;2023-02-15T06:36:11;2.37;;;2.27;;
9520;SDS011;4798;41.574;23.734;2023-02-15T06:38:41;2.67;;;2.57;;
9520;SDS011;4798;41.574;23.734;2023-02-15T06:41:10;3.73;;;3.63;;
9520;SDS011;4798;41.574;23.734;2023-02-15T06:43:38;5.83;;;5.23;;
9520;SDS011;4798;41.574;23.734;2023-02-15T06:46:06;6.80;;;3.03;;
9520;SDS011;4798;41.574;23.734;2023-02-15T06:48:36;2.83;;;2.00;;
9520;SDS011;4798;41.574;23.734;2023-02-15T06:51:04;5.23;;;1.60;;
9520;SDS011;4798;41.574;23.734;2023-02-15T06:53:33;3.33;;;2.27;;
9520;SDS011;4798;41.574;23.734;2023-02-15T06:56:03;3.17;;;2.90;;
9520;SDS011;4798;41.574;23.734;2023-02-15T06:58:35;3.27;;;3.00;;
9520;SDS011;4798;41.574;23.734;2023-02-15T07:01:04;2.60;;;2.50;;
9520;SDS011;4798;41.574;23.734;2023-02-15T07:03:33;2.50;;;2.40;;
9520;SDS011;4798;41.574;23.734;2023-02-15T07:06:03;6.33;;;5.47;;
9520;SDS011;4798;41.574;23.734;2023-02-15T07:08:34;3.20;;;2.90;;
9520;SDS011;4798;41.574;23.734;2023-02-15T07:11:05;1.63;;;1.43;;
9520;SDS011;4798;41.574;23.734;2023-02-15T07:13:51;0.67;;;0.67;;
9520;SDS011;4798;41.574;23.734;2023-02-15T07:16:20;2.27;;;0.70;;
9520;SDS011;4798;41.574;23.734;2023-02-15T07:18:48;2.27;;;1.47;;
9520;SDS011;4798;41.574;23.734;2023-02-15T07:21:17;3.00;;;2.90;;
9520;SDS011;4798;41.574;23.734;2023-02-15T07:23:45;0.40;;;0.40;;
9520;SDS011;4798;41.574;23.734;2023-02-15T07:26:15;2.60;;;2.50;;
9520;SDS011;4798;41.574;23.734;2023-02-15T07:28:43;1.13;;;0.97;;
9520;SDS011;4798;41.574;23.734;2023-02-15T07:31:12;1.27;;;1.27;;
9520;SDS011;4798;41.574;23.734;2023-02-15T07:33:40;9.50;;;1.97;;
9520;SDS011;4798;41.574;23.734;2023-02-15T07:36:09;0.63;;;0.63;;
9520;SDS011;4798;41.574;23.734;2023-02-15T07:38:39;3.17;;;2.97;;
9520;SDS011;4798;41.574;23.734;2023-02-15T07:41:09;1.27;;;1.17;;
9520;SDS011;4798;41.574;23.734;2023-02-15T07:43:41;1.93;;;1.53;;
9520;SDS011;4798;41.574;23.734;2023-02-15T07:46:11;2.50;;;2.03;;
9520;SDS011;4798;41.574;23.734;2023-02-15T07:48:40;3.10;;;1.50;;
9520;SDS011;4798;41.574;23.734;2023-02-15T07:51:10;1.63;;;1.53;;
9520;SDS011;4798;41.574;23.734;2023-02-15T07:53:39;1.37;;;1.27;;
9520;SDS011;4798;41.574;23.734;2023-02-15T07:56:09;2.57;;;2.37;;
9520;SDS011;4798;41.574;23.734;2023-02-15T07:58:40;1.77;;;1.60;;
9520;SDS011;4798;41.574;23.734;2023-02-15T08:01:23;1.70;;;1.70;;
9520;SDS011;4798;41.574;23.734;2023-02-15T08:03:52;2.50;;;2.30;;
9520;SDS011;4798;41.574;23.734;2023-02-15T08:06:21;7.13;;;1.17;;
9520;SDS011;4798;41.574;23.734;2023-02-15T08:08:51;4.53;;;1.87;;
9520;SDS011;4798;41.574;23.734;2023-02-15T08:11:20;1.97;;;1.87;;
9520;SDS011;4798;41.574;23.734;2023-02-15T08:13:57;3.73;;;1.80;;
9520;SDS011;4798;41.574;23.734;2023-02-15T08:16:27;2.10;;;1.30;;
9520;SDS011;4798;41.574;23.734;2023-02-15T08:18:58;2.97;;;2.43;;
9520;SDS011;4798;41.574;23.734;2023-02-15T08:21:28;2.37;;;1.67;;
9520;SDS011;4798;41.574;23.734;2023-02-15T08:23:57;1.47;;;1.37;;
9520;SDS011;4798;41.574;23.734;2023-02-15T08:26:27;6.10;;;2.37;;
9520;SDS011;4798;41.574;23.734;2023-02-15T08:28:58;1.23;;;0.77;;
9520;SDS011;4798;41.574;23.734;2023-02-15T08:31:27;1.83;;;1.73;;
9520;SDS011;4798;41.574;23.734;2023-02-15T08:33:56;1.63;;;1.53;;
9520;SDS011;4798;41.574;23.734;2023-02-15T08:36:25;3.17;;;2.97;;
9520;SDS011;4798;41.574;23.734;2023-02-15T08:38:56;1.77;;;1.50;;
9520;SDS011;4798;41.574;23.734;2023-02-15T08:41:26;1.90;;;1.43;;
9520;SDS011;4798;41.574;23.734;2023-02-15T08:43:56;2.63;;;2.43;;
9520;SDS011;4798;41.574;23.734;2023-02-15T08:46:28;5.23;;;2.13;;
9520;SDS011;4798;41.574;23.734;2023-02-15T08:48:58;3.07;;;2.83;;
9520;SDS011;4798;41.574;23.734;2023-02-15T08:51:27;2.50;;;1.80;;
9520;SDS011;4798;41.574;23.734;2023-02-15T08:53:58;0.97;;;0.87;;
9520;SDS011;4798;41.574;23.734;2023-02-15T08:56:28;5.80;;;1.10;;
9520;SDS011;4798;41.574;23.734;2023-02-15T08:58:59;1.87;;;1.77;;
9520;SDS011;4798;41.574;23.734;2023-02-15T09:01:28;1.63;;;1.53;;
9520;SDS011;4798;41.574;23.734;2023-02-15T09:03:59;4.93;;;1.47;;
9520;SDS011;4798;41.574;23.734;2023-02-15T09:06:28;1.97;;;1.50;;
9520;SDS011;4798;41.574;23.734;2023-02-15T09:08:57;5.90;;;1.70;;
9520;SDS011;4798;41.574;23.734;2023-02-15T09:11:26;2.30;;;2.20;;
9520;SDS011;4798;41.574;23.734;2023-02-15T09:13:56;1.43;;;1.00;;
9520;SDS011;4798;41.574;23.734;2023-02-15T09:16:28;2.70;;;1.40;;
9520;SDS011;4798;41.574;23.734;2023-02-15T09:18:58;7.73;;;1.33;;
9520;SDS011;4798;41.574;23.734;2023-02-15T09:21:28;2.30;;;1.57;;
9520;SDS011;4798;41.574;23.734;2023-02-15T09:23:57;2.43;;;0.60;;
9520;SDS011;4798;41.574;23.734;2023-02-15T09:26:28;1.40;;;1.30;;
9520;SDS011;4798;41.574;23.734;2023-02-15T09:28:58;1.80;;;1.70;;
9520;SDS011;4798;41.574;23.734;2023-02-15T09:31:29;2.13;;;2.03;;
9520;SDS011;4798;41.574;23.734;2023-02-15T09:34:00;2.57;;;2.20;;
9520;SDS011;4798;41.574;23.734;2023-02-15T09:36:29;3.27;;;2.07;;
9520;SDS011;4798;41.574;23.734;2023-02-15T09:39:00;9.00;;;1.07;;
9520;SDS011;4798;41.574;23.734;2023-02-15T09:41:36;4.43;;;2.20;;
9520;SDS011;4798;41.574;23.734;2023-02-15T09:44:31;1.87;;;1.77;;
9520;SDS011;4798;41.574;23.734;2023-02-15T09:47:15;2.27;;;2.17;;
9520;SDS011;4798;41.574;23.734;2023-02-15T09:49:58;1.23;;;1.13;;
9520;SDS011;4798;41.574;23.734;2023-02-15T09:52:34;3.33;;;2.70;;
9520;SDS011;4798;41.574;23.734;2023-02-15T09:55:20;1.10;;;1.10;;
9520;SDS011;4798;41.574;23.734;2023-02-15T09:58:05;1.40;;;1.30;;
9520;SDS011;4798;41.574;23.734;2023-02-15T10:00:41;1.87;;;1.40;;
9520;SDS011;4798;41.574;23.734;2023-02-15T10:03:18;5.93;;;3.27;;
9520;SDS011;4798;41.574;23.734;2023-02-15T10:06:05;1.37;;;1.37;;
9520;SDS011;4798;41.574;23.734;2023-02-15T10:11:51;1.83;;;1.33;;
9520;SDS011;4798;41.574;23.734;2023-02-15T10:14:46;1.37;;;1.27;;
9520;SDS011;4798;41.574;23.734;2023-02-15T10:17:28;1.40;;;1.30;;
9520;SDS011;4798;41.574;23.734;2023-02-15T10:20:12;2.10;;;1.70;;
9520;SDS011;4798;41.574;23.734;2023-02-15T10:22:57;2.93;;;1.17;;
9520;SDS011;4798;41.574;23.734;2023-02-15T10:25:42;1.20;;;1.10;;
9520;SDS011;4798;41.574;23.734;2023-02-15T10:28:19;1.80;;;1.67;;
9520;SDS011;4798;41.574;23.734;2023-02-15T10:30:52;2.60;;;0.90;;
9520;SDS011;4798;41.574;23.734;2023-02-15T10:33:30;1.70;;;1.23;;
9520;SDS011;4798;41.574;23.734;2023-02-15T10:36:11;1.60;;;1.50;;
9520;SDS011;4798;41.574;23.734;2023-02-15T10:38:52;2.93;;;2.13;;
9520;SDS011;4798;41.574;23.734;2023-02-15T10:41:31;1.83;;;0.90;;
9520;SDS011;4798;41.574;23.734;2023-02-15T10:44:16;1.73;;;1.00;;
9520;SDS011;4798;41.574;23.734;2023-02-15T10:47:17;2.97;;;0.83;;
9520;SDS011;4798;41.574;23.734;2023-02-15T10:53:03;1.23;;;1.10;;
9520;SDS011;4798;41.574;23.734;2023-02-15T10:55:51;2.10;;;2.00;;
9520;SDS011;4798;41.574;23.734;2023-02-15T10:58:36;1.73;;;1.63;;
9520;SDS011;4798;41.574;23.734;2023-02-15T11:01:15;2.70;;;1.00;;
9520;SDS011;4798;41.574;23.734;2023-02-15T11:04:00;1.50;;;1.40;;
9520;SDS011;4798;41.574;23.734;2023-02-15T11:06:59;0.93;;;0.90;;
9520;SDS011;4798;41.574;23.734;2023-02-15T11:09:36;4.07;;;1.17;;
9520;SDS011;4798;41.574;23.734;2023-02-15T11:12:09;1.07;;;0.80;;
9520;SDS011;4798;41.574;23.734;2023-02-15T11:14:44;1.10;;;1.10;;
9520;SDS011;4798;41.574;23.734;2023-02-15T11:17:19;2.17;;;1.97;;
9520;SDS011;4798;41.574;23.734;2023-02-15T11:19:55;0.80;;;0.80;;
9520;SDS011;4798;41.574;23.734;2023-02-15T11:22:29;0.63;;;0.50;;
9520;SDS011;4798;41.574;23.734;2023-02-15T11:25:04;0.93;;;0.60;;
9520;SDS011;4798;41.574;23.734;2023-02-15T11:27:45;1.10;;;0.67;;
9520;SDS011;4798;41.574;23.734;2023-02-15T11:30:18;4.30;;;1.90;;
9520;SDS011;4798;41.574;23.734;2023-02-15T11:32:48;1.00;;;0.87;;
9520;SDS011;4798;41.574;23.734;2023-02-15T11:35:20;1.27;;;1.07;;
9520;SDS011;4798;41.574;23.734;2023-02-15T11:37:54;0.77;;;0.77;;
9520;SDS011;4798;41.574;23.734;2023-02-15T11:40:31;6.53;;;1.80;;
9520;SDS011;4798;41.574;23.734;2023-02-15T11:43:03;1.13;;;0.83;;
9520;SDS011;4798;41.574;23.734;2023-02-15T11:45:34;2.10;;;1.57;;
9520;SDS011;4798;41.574;23.734;2023-02-15T11:48:08;1.37;;;1.13;;
9520;SDS011;4798;41.574;23.734;2023-02-15T11:50:39;0.50;;;0.50;;
9520;SDS011;4798;41.574;23.734;2023-02-15T11:53:10;1.63;;;0.50;;
9520;SDS011;4798;41.574;23.734;2023-02-15T11:55:43;3.03;;;0.63;;
9520;SDS011;4798;41.574;23.734;2023-02-15T11:58:15;2.07;;;1.97;;
9520;SDS011;4798;41.574;23.734;2023-02-15T12:00:52;0.50;;;0.40;;
9520;SDS011;4798;41.574;23.734;2023-02-15T12:03:27;1.30;;;1.27;;
9520;SDS011;4798;41.574;23.734;2023-02-15T12:06:13;1.80;;;1.70;;
9520;SDS011;4798;41.574;23.734;2023-02-15T12:08:48;0.77;;;0.77;;
9520;SDS011;4798;41.574;23.734;2023-02-15T12:11:22;0.97;;;0.90;;
9520;SDS011;4798;41.574;23.734;2023-02-15T12:13:57;0.87;;;0.87;;
9520;SDS011;4798;41.574;23.734;2023-02-15T12:16:27;1.37;;;1.30;;
9520;SDS011;4798;41.574;23.734;2023-02-15T12:19:00;1.37;;;1.27;;
9520;SDS011;4798;41.574;23.734;2023-02-15T12:21:30;0.80;;;0.57;;
9520;SDS011;4798;41.574;23.734;2023-02-15T12:24:03;1.63;;;1.47;;
9520;SDS011;4798;41.574;23.734;2023-02-15T12:26:42;2.07;;;0.83;;
9520;SDS011;4798;41.574;23.734;2023-02-15T12:29:12;1.10;;;1.00;;
9520;SDS011;4798;41.574;23.734;2023-02-15T12:31:45;1.23;;;1.00;;
9520;SDS011;4798;41.574;23.734;2023-02-15T12:34:17;3.73;;;2.87;;
9520;SDS011;4798;41.574;23.734;2023-02-15T12:36:49;1.43;;;0.80;;
9520;SDS011;4798;41.574;23.734;2023-02-15T12:39:25;1.60;;;1.50;;
9520;SDS011;4798;41.574;23.734;2023-02-15T12:42:00;0.80;;;0.70;;
9520;SDS011;4798;41.574;23.734;2023-02-15T12:44:31;1.00;;;0.80;;
9520;SDS011;4798;41.574;23.734;2023-02-15T12:47:01;0.87;;;0.87;;
9520;SDS011;4798;41.574;23.734;2023-02-15T12:49:31;1.00;;;1.00;;
9520;SDS011;4798;41.574;23.734;2023-02-15T12:52:01;2.10;;;1.23;;
9520;SDS011;4798;41.574;23.734;2023-02-15T12:54:37;4.63;;;1.27;;
9520;SDS011;4798;41.574;23.734;2023-02-15T12:57:25;1.70;;;1.03;;
9520;SDS011;4798;41.574;23.734;2023-02-15T12:59:56;1.13;;;0.70;;
9520;SDS011;4798;41.574;23.734;2023-02-15T13:02:30;4.83;;;1.07;;
9520;SDS011;4798;41.574;23.734;2023-02-15T13:05:04;1.03;;;0.97;;
9520;SDS011;4798;41.574;23.734;2023-02-15T13:07:44;2.97;;;1.07;;
9520;SDS011;4798;41.574;23.734;2023-02-15T13:10:24;2.00;;;1.90;;
9520;SDS011;4798;41.574;23.734;2023-02-15T13:12:56;1.73;;;1.63;;
9520;SDS011;4798;41.574;23.734;2023-02-15T13:15:26;2.67;;;0.80;;
9520;SDS011;4798;41.574;23.734;2023-02-15T13:18:02;0.93;;;0.80;;
9520;SDS011;4798;41.574;23.734;2023-02-15T13:20:33;1.23;;;0.77;;
9520;SDS011;4798;41.574;23.734;2023-02-15T13:23:09;0.70;;;0.70;;
9520;SDS011;4798;41.574;23.734;2023-02-15T13:25:50;1.53;;;1.43;;
9520;SDS011;4798;41.574;23.734;2023-02-15T13:28:20;0.57;;;0.53;;
9520;SDS011;4798;41.574;23.734;2023-02-15T13:30:52;0.50;;;0.40;;
9520;SDS011;4798;41.574;23.734;2023-02-15T13:33:22;0.80;;;0.70;;
9520;SDS011;4798;41.574;23.734;2023-02-15T13:35:56;2.87;;;1.57;;
9520;SDS011;4798;41.574;23.734;2023-02-15T13:41:43;0.77;;;0.67;;
9520;SDS011;4798;41.574;23.734;2023-02-15T13:44:23;4.60;;;1.10;;
9520;SDS011;4798;41.574;23.734;2023-02-15T13:47:05;1.17;;;0.50;;
9520;SDS011;4798;41.574;23.734;2023-02-15T13:49:49;0.60;;;0.60;;
9520;SDS011;4798;41.574;23.734;2023-02-15T13:52:27;2.00;;;1.90;;
9520;SDS011;4798;41.574;23.734;2023-02-15T13:55:09;1.30;;;0.80;;
9520;SDS011;4798;41.574;23.734;2023-02-15T13:58:01;1.13;;;1.13;;
9520;SDS011;4798;41.574;23.734;2023-02-15T14:00:56;1.03;;;1.03;;
9520;SDS011;4798;41.574;23.734;2023-02-15T14:03:44;1.20;;;1.10;;
9520;SDS011;4798;41.574;23.734;2023-02-15T14:06:47;1.00;;;1.00;;
9520;SDS011;4798;41.574;23.734;2023-02-15T14:09:28;0.67;;;0.50;;
9520;SDS011;4798;41.574;23.734;2023-02-15T14:12:14;4.53;;;0.90;;
9520;SDS011;4798;41.574;23.734;2023-02-15T14:14:58;0.50;;;0.50;;
9520;SDS011;4798;41.574;23.734;2023-02-15T14:17:42;1.07;;;0.70;;
9520;SDS011;4798;41.574;23.734;2023-02-15T14:20:20;0.60;;;0.53;;
9520;SDS011;4798;41.574;23.734;2023-02-15T14:22:54;1.47;;;1.37;;
9520;SDS011;4798;41.574;23.734;2023-02-15T14:25:38;1.90;;;1.63;;
9520;SDS011;4798;41.574;23.734;2023-02-15T14:28:13;2.93;;;1.10;;
9520;SDS011;4798;41.574;23.734;2023-02-15T14:30:44;1.13;;;1.10;;
9520;SDS011;4798;41.574;23.734;2023-02-15T14:33:25;1.80;;;0.97;;
9520;SDS011;4798;41.574;23.734;2023-02-15T14:36:01;1.43;;;1.33;;
9520;SDS011;4798;41.574;23.734;2023-02-15T14:38:37;2.83;;;1.20;;
9520;SDS011;4798;41.574;23.734;2023-02-15T14:41:12;0.60;;;0.50;;
9520;SDS011;4798;41.574;23.734;2023-02-15T14:43:49;4.40;;;1.57;;
9520;SDS011;4798;41.574;23.734;2023-02-15T14:46:30;3.23;;;1.70;;
9520;SDS011;4798;41.574;23.734;2023-02-15T14:49:06;4.50;;;1.60;;
9520;SDS011;4798;41.574;23.734;2023-02-15T14:57:32;3.90;;;1.70;;
9520;SDS011;4798;41.574;23.734;2023-02-15T15:02:58;3.03;;;1.60;;
9520;SDS011;4798;41.574;23.734;2023-02-15T15:05:32;3.27;;;3.17;;
9520;SDS011;4798;41.574;23.734;2023-02-15T15:08:02;3.87;;;3.67;;
9520;SDS011;4798;41.574;23.734;2023-02-15T15:10:42;2.40;;;1.30;;
9520;SDS011;4798;41.574;23.734;2023-02-15T15:16:25;4.47;;;1.43;;
9520;SDS011;4798;41.574;23.734;2023-02-15T15:18:58;3.90;;;2.20;;
9520;SDS011;4798;41.574;23.734;2023-02-15T15:33:22;6.07;;;4.13;;
9520;SDS011;4798;41.574;23.734;2023-02-15T15:36:13;2.07;;;1.90;;
9520;SDS011;4798;41.574;23.734;2023-02-15T15:39:01;4.53;;;1.90;;
9520;SDS011;4798;41.574;23.734;2023-02-15T15:41:46;12.87;;;4.27;;
9520;SDS011;4798;41.574;23.734;2023-02-15T15:44:37;9.93;;;5.40;;
9520;SDS011;4798;41.574;23.734;2023-02-15T15:47:31;7.43;;;7.03;;
9520;SDS011;4798;41.574;23.734;2023-02-15T15:50:11;3.07;;;2.87;;
9520;SDS011;4798;41.574;23.734;2023-02-15T15:52:42;4.10;;;3.87;;
9520;SDS011;4798;41.574;23.734;2023-02-15T15:55:17;4.60;;;4.30;;
9520;SDS011;4798;41.574;23.734;2023-02-15T15:57:49;4.10;;;3.67;;
9520;SDS011;4798;41.574;23.734;2023-02-15T16:00:24;5.33;;;1.30;;
9520;SDS011;4798;41.574;23.734;2023-02-15T16:02:59;5.47;;;3.60;;
9520;SDS011;4798;41.574;23.734;2023-02-15T16:05:34;14.63;;;2.93;;
9520;SDS011;4798;41.574;23.734;2023-02-15T16:08:03;2.50;;;2.30;;
9520;SDS011;4798;41.574;23.734;2023-02-15T16:10:34;2.40;;;1.93;;
9520;SDS011;4798;41.574;23.734;2023-02-15T16:13:04;5.30;;;3.90;;
9520;SDS011;4798;41.574;23.734;2023-02-15T16:15:35;5.40;;;3.50;;
9520;SDS011;4798;41.574;23.734;2023-02-15T16:18:11;9.97;;;9.03;;